Time;durP1;ratioP1;P1;durP2;ratioP2;P2;SDS_P1;SDS_P2;PMS_P1;PMS_P2;Temp;Humidity;BMP_temperature;BMP_pressure;BME280_temperature;BME280_humidity;BME280_pressure;Samples;Min_cycle;Max_cycle;Signal;HPM_P1;HPM_P2
2022/07/09 00:01:04;;;;;;;6.32;1.83;;;17.50;99.90;;;;;;4973707;28;20230;-56
2022/07/09 00:03:29;;;;;;;4.15;2.30;;;17.50;99.90;;;;;;4973241;28;20659;-56
2022/07/09 00:05:55;;;;;;;3.67;1.98;;;17.40;99.90;;;;;;4973402;28;20187;-56
2022/07/09 00:08:43;;;;;;;3.13;1.95;;;17.40;99.90;;;;;;4955993;28;20196;-57
2022/07/09 00:14:22;;;;;;;4.85;2.50;;;17.30;99.90;;;;;;4957131;28;20537;-56
2022/07/09 00:16:48;;;;;;;3.85;2.15;;;17.40;99.90;;;;;;4973411;28;20211;-57
2022/07/09 00:19:14;;;;;;;5.82;1.92;;;17.30;99.90;;;;;;4973521;28;20179;-57
2022/07/09 00:21:40;;;;;;;3.13;2.00;;;17.30;99.90;;;;;;4973315;28;20175;-56
2022/07/09 00:24:06;;;;;;;3.75;2.22;;;17.20;99.90;;;;;;4972419;28;20661;-57
2022/07/09 00:26:33;;;;;;;6.07;2.25;;;17.20;99.90;;;;;;4972898;28;20179;-57
2022/07/09 00:28:58;;;;;;;6.55;1.80;;;17.20;99.90;;;;;;4972924;28;20271;-56
2022/07/09 00:31:24;;;;;;;2.88;2.13;;;17.20;99.90;;;;;;4216151;28;20218;-56
2022/07/09 00:33:50;;;;;;;3.13;2.00;;;17.30;99.90;;;;;;4973518;28;20223;-57
2022/07/09 00:36:16;;;;;;;6.45;2.38;;;17.30;99.90;;;;;;4973100;28;20183;-56
2022/07/09 00:38:42;;;;;;;3.20;1.83;;;17.30;99.90;;;;;;4973089;28;20185;-56
2022/07/09 00:44:29;;;;;;;4.22;2.33;;;17.20;99.90;;;;;;4973427;28;20709;-56
2022/07/09 00:47:39;;;;;;;6.00;2.50;;;17.10;99.90;;;;;;4973078;28;20180;-57
2022/07/09 00:50:06;;;;;;;5.05;2.22;;;17.10;99.90;;;;;;4972490;28;20172;-56
2022/07/09 00:52:33;;;;;;;3.47;2.10;;;17.00;99.90;;;;;;4972486;28;20555;-56
2022/07/09 00:55:01;;;;;;;5.40;2.20;;;16.90;99.90;;;;;;4972882;28;20650;-56
2022/07/09 00:57:28;;;;;;;3.90;2.00;;;16.90;99.90;;;;;;4972756;28;20211;-56
2022/07/09 00:59:54;;;;;;;3.88;1.95;;;16.90;99.90;;;;;;4972722;28;20163;-57
2022/07/09 01:02:22;;;;;;;5.30;1.90;;;16.70;99.90;;;;;;4972800;28;20168;-57
2022/07/09 01:04:48;;;;;;;2.72;2.03;;;16.80;99.90;;;;;;4972593;28;20176;-56
2022/07/09 01:07:14;;;;;;;5.00;2.35;;;16.80;99.90;;;;;;4972643;28;20195;-57
2022/07/09 01:09:40;;;;;;;6.55;2.20;;;16.70;99.90;;;;;;4972604;28;20167;-57
2022/07/09 01:12:07;;;;;;;3.92;2.28;;;16.80;99.90;;;;;;4972577;28;20545;-57
2022/07/09 01:14:33;;;;;;;5.80;2.00;;;16.70;99.90;;;;;;4972513;28;20171;-57
2022/07/09 01:17:01;;;;;;;5.07;2.40;;;16.60;99.90;;;;;;4972407;28;20218;-57
2022/07/09 01:19:31;;;;;;;3.97;2.42;;;16.60;99.90;;;;;;4972427;28;20214;-56
2022/07/09 01:21:58;;;;;;;2.55;2.08;;;16.60;99.90;;;;;;4955280;28;20535;-56
2022/07/09 01:24:24;;;;;;;3.70;2.22;;;16.50;99.90;;;;;;4972706;28;20208;-57
2022/07/09 01:26:52;;;;;;;5.97;2.47;;;16.50;99.90;;;;;;4972355;28;20183;-56
2022/07/09 01:29:18;;;;;;;4.95;2.20;;;16.50;99.90;;;;;;4972677;28;20646;-56
2022/07/09 01:31:44;;;;;;;6.65;2.30;;;16.40;99.90;;;;;;4972274;28;20226;-56
2022/07/09 01:34:09;;;;;;;4.43;2.30;;;16.50;99.90;;;;;;4971913;28;20548;-56
2022/07/09 01:36:35;;;;;;;3.28;2.25;;;16.50;99.90;;;;;;4972301;28;20203;-56
2022/07/09 01:39:01;;;;;;;4.93;2.35;;;16.50;99.90;;;;;;4972223;28;20176;-57
2022/07/09 01:41:27;;;;;;;3.20;2.30;;;16.50;99.90;;;;;;4972179;28;20183;-56
2022/07/09 01:43:53;;;;;;;3.38;2.10;;;16.50;99.90;;;;;;4972415;28;20179;-57
2022/07/09 01:46:18;;;;;;;3.95;2.08;;;16.50;99.90;;;;;;4972089;28;20710;-56
2022/07/09 01:48:44;;;;;;;2.60;1.90;;;16.40;99.90;;;;;;4972299;28;20180;-57
2022/07/09 01:51:12;;;;;;;3.25;2.00;;;16.40;99.90;;;;;;4972048;28;20172;-56
2022/07/09 01:53:39;;;;;;;8.57;2.40;;;16.30;99.90;;;;;;4972189;28;20211;-57
2022/07/09 01:56:09;;;;;;;4.32;2.50;;;16.20;99.90;;;;;;4972168;28;20164;-56
2022/07/09 01:58:35;;;;;;;4.90;2.05;;;16.20;99.90;;;;;;4972158;28;20717;-57
2022/07/09 02:01:02;;;;;;;5.78;2.15;;;16.10;99.90;;;;;;4972068;28;20548;-56
2022/07/09 02:03:28;;;;;;;6.38;2.50;;;16.10;99.90;;;;;;4972136;28;20653;-56
2022/07/09 02:05:54;;;;;;;3.75;2.70;;;16.10;99.90;;;;;;4971964;28;20177;-57
2022/07/09 02:08:19;;;;;;;2.97;2.38;;;16.00;99.90;;;;;;4971987;28;20172;-56
2022/07/09 02:10:48;;;;;;;5.82;2.38;;;16.10;99.90;;;;;;4971992;28;20180;-56
2022/07/09 02:13:13;;;;;;;5.07;2.33;;;16.00;99.90;;;;;;4972033;28;20168;-56
2022/07/09 02:15:39;;;;;;;6.25;2.20;;;16.00;99.90;;;;;;4971867;28;20187;-56
2022/07/09 02:18:05;;;;;;;4.93;2.40;;;16.10;99.90;;;;;;4971926;28;20211;-56
2022/07/09 02:20:32;;;;;;;2.90;2.00;;;16.10;99.90;;;;;;4971909;28;20168;-56
2022/07/09 02:22:58;;;;;;;6.22;2.10;;;16.20;99.90;;;;;;4972007;28;20212;-56
2022/07/09 02:25:24;;;;;;;3.22;1.90;;;16.20;99.90;;;;;;4971873;28;20207;-56
2022/07/09 02:27:49;;;;;;;7.95;2.58;;;16.10;99.90;;;;;;4972039;28;20689;-56
2022/07/09 02:30:15;;;;;;;6.10;2.25;;;16.10;99.90;;;;;;4971771;28;20558;-56
2022/07/09 02:32:41;;;;;;;3.67;2.25;;;16.10;99.90;;;;;;4971760;28;20297;-56
2022/07/09 02:35:08;;;;;;;3.58;2.40;;;16.00;99.90;;;;;;4971839;28;20701;-56
2022/07/09 02:37:33;;;;;;;3.83;2.33;;;15.90;99.90;;;;;;4971600;28;20216;-56
2022/07/09 02:39:59;;;;;;;6.32;2.60;;;15.90;99.90;;;;;;4971713;28;20202;-56
2022/07/09 02:42:26;;;;;;;8.40;2.15;;;15.90;99.90;;;;;;4954405;28;20180;-56
2022/07/09 02:44:53;;;;;;;5.20;2.10;;;15.90;99.90;;;;;;4971452;28;20192;-57
2022/07/09 02:48:15;;;;;;;5.30;2.33;;;15.90;99.90;;;;;;4973909;28;20619;-57
2022/07/09 02:50:41;;;;;;;4.90;2.05;;;15.80;99.90;;;;;;4975121;28;20259;-56
2022/07/09 02:53:07;;;;;;;9.65;2.42;;;15.80;99.90;;;;;;4974984;28;20264;-56
2022/07/09 02:55:33;;;;;;;6.63;2.63;;;15.80;99.90;;;;;;4973684;28;20637;-55
2022/07/09 02:57:58;;;;;;;4.18;2.13;;;15.70;99.90;;;;;;4975101;28;20223;-56
2022/07/09 03:00:24;;;;;;;2.30;1.80;;;15.80;99.90;;;;;;4974974;28;20698;-56
2022/07/09 03:02:50;;;;;;;3.97;2.10;;;15.80;99.90;;;;;;4974941;28;20172;-56
2022/07/09 03:05:16;;;;;;;6.15;2.00;;;15.50;99.90;;;;;;4974776;28;20199;-56
2022/07/09 03:07:41;;;;;;;4.05;2.83;;;15.60;99.90;;;;;;4974810;28;20207;-56
2022/07/09 03:10:09;;;;;;;3.65;2.20;;;15.60;99.90;;;;;;4974753;28;20199;-55
2022/07/09 03:12:34;;;;;;;2.97;2.17;;;15.40;99.90;;;;;;4974743;28;20325;-56
2022/07/09 03:15:00;;;;;;;5.95;1.83;;;15.40;99.90;;;;;;4974713;28;20267;-57
2022/07/09 03:17:27;;;;;;;5.82;2.10;;;15.40;99.90;;;;;;4974562;28;20294;-56
2022/07/09 03:19:52;;;;;;;3.03;2.10;;;15.20;99.90;;;;;;4974877;28;20196;-57
2022/07/09 03:22:18;;;;;;;3.10;2.10;;;15.20;99.90;;;;;;4974596;28;20211;-56
2022/07/09 03:24:44;;;;;;;2.50;2.00;;;15.10;99.90;;;;;;4974546;28;20239;-57
2022/07/09 03:27:10;;;;;;;3.85;2.28;;;15.10;99.90;;;;;;4974872;28;20252;-56
2022/07/09 03:29:36;;;;;;;2.67;2.08;;;15.10;99.90;;;;;;4974537;28;20175;-56
2022/07/09 03:32:01;;;;;;;3.67;2.35;;;15.10;99.90;;;;;;4974179;28;20283;-56
2022/07/09 03:34:27;;;;;;;4.65;2.25;;;15.10;99.90;;;;;;4974599;28;20172;-56
2022/07/09 03:36:53;;;;;;;3.67;2.17;;;15.10;99.90;;;;;;4974257;28;20231;-56
2022/07/09 03:39:19;;;;;;;4.97;2.10;;;15.20;99.90;;;;;;4974406;28;20180;-56
2022/07/09 03:41:45;;;;;;;3.95;2.13;;;15.10;99.90;;;;;;4974215;28;20646;-56
2022/07/09 03:44:10;;;;;;;4.85;1.90;;;15.00;99.90;;;;;;4974169;28;20183;-56
2022/07/09 03:46:36;;;;;;;3.67;1.95;;;15.20;99.90;;;;;;4974192;28;20623;-56
2022/07/09 03:49:02;;;;;;;5.63;2.20;;;15.20;99.90;;;;;;4974056;28;20532;-57
2022/07/09 03:51:28;;;;;;;5.63;2.30;;;15.20;99.90;;;;;;4974305;28;20673;-56
2022/07/09 03:53:54;;;;;;;7.82;2.13;;;15.20;99.90;;;;;;4974039;28;20239;-56
2022/07/09 03:56:20;;;;;;;6.40;2.05;;;15.20;99.90;;;;;;4973881;28;20175;-56
2022/07/09 03:58:46;;;;;;;3.70;1.80;;;15.20;99.90;;;;;;4973711;28;20202;-56
2022/07/09 04:01:30;;;;;;;3.40;1.80;;;15.20;99.90;;;;;;4973558;28;20176;-56
2022/07/09 04:03:55;;;;;;;5.18;1.85;;;15.10;99.90;;;;;;4973762;28;20663;-56
2022/07/09 04:09:43;;;;;;;2.95;2.00;;;15.00;99.90;;;;;;4973890;28;20179;-55
2022/07/09 04:12:09;;;;;;;4.13;2.10;;;15.00;99.90;;;;;;4973710;28;20168;-56
2022/07/09 04:14:35;;;;;;;2.90;2.33;;;14.90;99.90;;;;;;4973670;28;20254;-56
2022/07/09 04:17:01;;;;;;;5.38;1.80;;;14.90;99.90;;;;;;4973522;28;20215;-56
2022/07/09 04:19:26;;;;;;;2.75;1.65;;;15.00;99.90;;;;;;4973589;28;20172;-56
2022/07/09 04:21:52;;;;;;;4.35;2.05;;;15.00;99.90;;;;;;4973349;28;20168;-56
2022/07/09 04:24:18;;;;;;;3.75;1.70;;;14.90;99.90;;;;;;4973469;28;20184;-56
2022/07/09 04:26:44;;;;;;;3.35;2.20;;;14.90;99.90;;;;;;4973261;28;20183;-56
2022/07/09 04:29:10;;;;;;;4.20;1.90;;;14.80;99.90;;;;;;4973356;28;20851;-56
2022/07/09 04:31:36;;;;;;;2.88;1.77;;;14.80;99.90;;;;;;4973086;28;20338;-56
2022/07/09 04:34:02;;;;;;;4.38;1.92;;;14.80;99.90;;;;;;4973201;28;20247;-56
2022/07/09 04:36:29;;;;;;;2.78;1.83;;;14.80;99.90;;;;;;4972975;28;20267;-56
2022/07/09 04:38:55;;;;;;;5.88;2.05;;;14.80;99.90;;;;;;4973361;28;20184;-56
2022/07/09 04:41:21;;;;;;;4.63;1.77;;;14.90;99.90;;;;;;4973174;28;20160;-56
2022/07/09 04:43:47;;;;;;;3.25;1.80;;;14.80;99.90;;;;;;4973177;28;20263;-56
2022/07/09 04:46:14;;;;;;;2.30;1.70;;;14.80;99.90;;;;;;4973083;28;20707;-56
2022/07/09 04:48:39;;;;;;;2.40;1.52;;;14.80;99.90;;;;;;4972958;28;20658;-55
2022/07/09 04:51:05;;;;;;;3.88;1.90;;;14.70;99.90;;;;;;4971718;28;20180;-56
2022/07/09 04:53:31;;;;;;;4.80;2.08;;;14.70;99.90;;;;;;4972947;28;20168;-56
2022/07/09 04:55:57;;;;;;;3.60;1.98;;;14.70;99.90;;;;;;4972906;28;20168;-56
2022/07/09 04:58:23;;;;;;;4.10;1.85;;;14.70;99.90;;;;;;4972641;28;20278;-56
2022/07/09 05:00:48;;;;;;;6.00;2.15;;;14.70;99.90;;;;;;4972855;28;20176;-57
2022/07/09 05:03:14;;;;;;;3.13;1.90;;;14.80;99.90;;;;;;4972838;28;20168;-56
2022/07/09 05:05:40;;;;;;;7.60;2.20;;;14.80;99.90;;;;;;4972747;28;20206;-56
2022/07/09 05:08:06;;;;;;;4.03;1.98;;;14.90;99.90;;;;;;4972951;28;20171;-57
2022/07/09 05:10:33;;;;;;;3.53;2.17;;;15.20;99.90;;;;;;4972180;28;20195;-57
2022/07/09 05:12:58;;;;;;;4.95;1.67;;;15.00;99.90;;;;;;4972834;28;20164;-56
2022/07/09 05:15:24;;;;;;;3.92;1.77;;;15.10;99.90;;;;;;4972676;28;20254;-57
2022/07/09 05:17:50;;;;;;;4.75;2.10;;;15.20;99.90;;;;;;4972690;28;20234;-57
2022/07/09 05:20:16;;;;;;;3.33;1.80;;;15.60;99.90;;;;;;4972635;28;20164;-57
2022/07/09 05:22:42;;;;;;;3.35;1.95;;;15.40;99.90;;;;;;4972775;28;20180;-57
2022/07/09 05:25:28;;;;;;;3.13;1.90;;;15.50;99.90;;;;;;4972310;28;20653;-56
2022/07/09 05:27:53;;;;;;;4.28;1.85;;;15.60;99.90;;;;;;4972451;28;20229;-56
2022/07/09 05:30:19;;;;;;;3.05;1.85;;;15.70;99.90;;;;;;4972600;28;20647;-57
2022/07/09 05:32:45;;;;;;;3.72;1.70;;;15.80;99.90;;;;;;4972289;28;20228;-56
2022/07/09 05:35:12;;;;;;;4.63;1.98;;;15.80;99.90;;;;;;4972387;28;20171;-58
2022/07/09 05:37:42;;;;;;;5.15;1.92;;;15.90;99.90;;;;;;4972516;28;20291;-57
2022/07/09 05:40:08;;;;;;;3.35;1.77;;;16.00;99.90;;;;;;4972274;28;20184;-57
2022/07/09 05:42:34;;;;;;;4.60;2.10;;;16.20;99.90;;;;;;4972217;28;20168;-56
2022/07/09 05:45:00;;;;;;;4.00;1.92;;;16.30;99.90;;;;;;4972242;28;20188;-57
2022/07/09 05:47:26;;;;;;;3.42;1.67;;;16.50;99.90;;;;;;4972274;28;20682;-56
2022/07/09 05:49:51;;;;;;;5.47;1.90;;;16.70;99.90;;;;;;4972346;28;20215;-57
2022/07/09 05:52:17;;;;;;;4.30;1.83;;;16.80;99.90;;;;;;4972221;28;20651;-56
2022/07/09 05:54:43;;;;;;;2.92;1.65;;;16.80;99.90;;;;;;4972092;28;20168;-57
2022/07/09 05:57:09;;;;;;;5.57;1.95;;;16.80;99.90;;;;;;4972039;28;20239;-57
2022/07/09 05:59:35;;;;;;;4.05;1.92;;;16.90;99.90;;;;;;4972038;28;20172;-57
2022/07/09 06:02:02;;;;;;;3.95;2.08;;;16.90;99.90;;;;;;4972046;28;20251;-57
2022/07/09 06:04:28;;;;;;;4.65;2.10;;;16.90;99.90;;;;;;4972036;28;20199;-57
2022/07/09 06:06:54;;;;;;;3.15;1.95;;;17.00;99.90;;;;;;4972044;28;20221;-56
2022/07/09 06:09:20;;;;;;;9.68;2.08;;;16.90;99.90;;;;;;4971915;28;20254;-56
2022/07/09 06:11:46;;;;;;;6.40;1.80;;;16.80;99.90;;;;;;4972006;28;20183;-56
2022/07/09 06:14:12;;;;;;;7.55;2.42;;;16.60;99.90;;;;;;4972054;28;20179;-57
2022/07/09 06:16:37;;;;;;;8.05;1.98;;;16.60;99.90;;;;;;4971815;28;20172;-56
2022/07/09 06:19:03;;;;;;;3.17;1.70;;;16.50;99.90;;;;;;4972016;28;20168;-56
2022/07/09 06:21:29;;;;;;;8.02;1.80;;;16.60;99.90;;;;;;4972855;28;20235;-56
2022/07/09 06:23:55;;;;;;;3.30;1.55;;;16.60;99.90;;;;;;4975773;28;20642;-57
2022/07/09 06:26:21;;;;;;;3.92;1.90;;;16.70;99.90;;;;;;4975624;28;20180;-56
2022/07/09 06:28:46;;;;;;;3.30;1.77;;;16.90;99.90;;;;;;4976031;28;20172;-56
2022/07/09 06:31:12;;;;;;;2.30;1.90;;;17.00;99.90;;;;;;4975389;28;20191;-56
2022/07/09 06:33:38;;;;;;;5.70;1.85;;;17.10;99.90;;;;;;4975416;28;20172;-57
2022/07/09 06:36:04;;;;;;;3.15;1.75;;;16.90;99.90;;;;;;4975535;28;20610;-56
2022/07/09 06:38:30;;;;;;;7.05;2.05;;;17.40;99.90;;;;;;4975485;28;20219;-56
2022/07/09 06:40:56;;;;;;;2.78;1.83;;;17.60;99.90;;;;;;4975286;28;20259;-56
2022/07/09 06:43:22;;;;;;;3.90;2.08;;;17.60;99.90;;;;;;4975268;28;20182;-57
2022/07/09 06:45:48;;;;;;;2.67;1.98;;;17.70;99.90;;;;;;4975169;28;20168;-56
2022/07/09 06:48:14;;;;;;;3.00;1.95;;;17.80;99.90;;;;;;4975253;28;20172;-56
2022/07/09 06:50:40;;;;;;;4.28;2.10;;;17.90;99.90;;;;;;4975142;28;20176;-57
2022/07/09 06:53:05;;;;;;;4.35;2.05;;;18.10;99.90;;;;;;4975196;28;20206;-57
2022/07/09 06:55:32;;;;;;;4.68;2.60;;;18.20;99.90;;;;;;4975232;28;20700;-57
2022/07/09 06:57:59;;;;;;;3.88;2.20;;;18.40;99.90;;;;;;4974986;28;20225;-56
2022/07/09 07:00:25;;;;;;;8.27;2.40;;;18.50;99.90;;;;;;4975202;28;20859;-57
2022/07/09 07:02:51;;;;;;;8.75;2.35;;;18.60;99.90;;;;;;4975122;28;20184;-57
2022/07/09 07:05:17;;;;;;;6.00;2.28;;;18.70;99.90;;;;;;4974864;28;20657;-58
2022/07/09 07:07:42;;;;;;;3.70;2.33;;;18.80;99.90;;;;;;4974936;28;20682;-56
2022/07/09 07:10:09;;;;;;;3.33;2.20;;;18.80;99.90;;;;;;4974802;28;20639;-57
2022/07/09 07:12:34;;;;;;;3.92;1.95;;;19.00;99.90;;;;;;4974532;28;20187;-57
2022/07/09 07:15:00;;;;;;;5.10;2.17;;;19.00;99.90;;;;;;4974769;28;20179;-57
2022/07/09 07:17:26;;;;;;;4.30;2.00;;;19.20;99.90;;;;;;4974558;28;20211;-55
2022/07/09 07:19:52;;;;;;;4.03;1.77;;;19.40;99.90;;;;;;4974700;28;20199;-57
2022/07/09 07:22:18;;;;;;;3.83;2.00;;;19.60;99.90;;;;;;4974698;28;20224;-57
2022/07/09 07:24:44;;;;;;;2.78;2.13;;;19.60;99.90;;;;;;4974487;28;20172;-57
2022/07/09 07:27:09;;;;;;;3.40;1.88;;;19.70;99.90;;;;;;4974506;28;20188;-57
2022/07/09 07:29:35;;;;;;;3.65;1.90;;;19.70;99.90;;;;;;4974518;28;20213;-57
2022/07/09 07:32:01;;;;;;;3.05;1.75;;;19.80;99.90;;;;;;4973887;28;20220;-57
2022/07/09 07:34:27;;;;;;;6.28;2.00;;;19.70;99.90;;;;;;4974457;28;20592;-57
2022/07/09 07:36:53;;;;;;;3.83;2.05;;;19.90;99.90;;;;;;4974243;28;20218;-57
2022/07/09 07:39:21;;;;;;;3.00;1.63;;;19.90;99.90;;;;;;4974461;28;20574;-57
2022/07/09 07:41:48;;;;;;;3.25;1.70;;;19.90;99.90;;;;;;4974141;28;20528;-57
2022/07/09 07:44:14;;;;;;;2.42;1.70;;;19.80;99.90;;;;;;4974284;28;20548;-57
2022/07/09 07:46:39;;;;;;;3.03;1.55;;;19.60;99.90;;;;;;4974245;28;20175;-57
2022/07/09 07:49:05;;;;;;;2.40;1.60;;;19.50;99.90;;;;;;4974168;28;20176;-57
2022/07/09 07:51:31;;;;;;;2.47;1.50;;;19.40;99.90;;;;;;4974112;28;20532;-56
2022/07/09 07:53:57;;;;;;;3.42;1.80;;;19.50;99.90;;;;;;4973926;28;20547;-57
2022/07/09 07:56:22;;;;;;;6.57;2.50;;;19.50;99.90;;;;;;4973996;28;20204;-56
2022/07/09 07:58:48;;;;;;;2.35;1.60;;;19.60;99.90;;;;;;4973764;28;20222;-56
2022/07/09 08:01:14;;;;;;;3.20;1.63;;;19.80;99.90;;;;;;4973803;28;20587;-56
2022/07/09 08:03:40;;;;;;;3.97;1.75;;;19.80;99.90;;;;;;4973958;28;20184;-57
2022/07/09 08:06:07;;;;;;;3.58;1.85;;;19.90;99.90;;;;;;4973822;28;20172;-56
2022/07/09 08:08:34;;;;;;;4.40;1.65;;;19.90;99.90;;;;;;4973669;28;20184;-56
2022/07/09 08:11:00;;;;;;;1.80;1.70;;;19.80;99.90;;;;;;4973666;28;20172;-57
2022/07/09 08:13:28;;;;;;;9.88;1.90;;;19.90;99.90;;;;;;4973463;28;20195;-56
2022/07/09 08:15:54;;;;;;;3.22;1.88;;;20.10;99.90;;;;;;4973359;28;20187;-56
2022/07/09 08:18:20;;;;;;;2.13;1.70;;;20.20;99.90;;;;;;4973433;28;20216;-56
2022/07/09 08:20:47;;;;;;;8.68;2.17;;;20.20;99.90;;;;;;4973535;28;20172;-56
2022/07/09 08:23:13;;;;;;;1.98;1.38;;;20.40;99.90;;;;;;4973322;28;20257;-57
2022/07/09 08:25:39;;;;;;;2.40;1.58;;;20.40;99.90;;;;;;4973298;28;20172;-56
2022/07/09 08:28:05;;;;;;;5.55;1.42;;;20.50;99.90;;;;;;4973535;28;20323;-56
2022/07/09 08:30:31;;;;;;;3.97;1.95;;;20.70;99.90;;;;;;4973496;28;20180;-56
2022/07/09 08:32:56;;;;;;;4.45;1.40;;;21.00;99.90;;;;;;4972697;28;20693;-56
2022/07/09 08:35:22;;;;;;;3.95;1.55;;;21.10;99.90;;;;;;4973250;28;20521;-56
2022/07/09 08:37:48;;;;;;;4.13;1.55;;;21.10;99.90;;;;;;4972987;28;20218;-56
2022/07/09 08:40:15;;;;;;;3.58;1.30;;;21.20;99.90;;;;;;4973020;28;20223;-56
2022/07/09 08:42:43;;;;;;;2.50;1.30;;;21.20;99.90;;;;;;4972330;28;20681;-57
2022/07/09 08:45:14;;;;;;;3.30;1.50;;;21.50;99.90;;;;;;4972254;28;20176;-57
2022/07/09 08:47:41;;;;;;;5.18;1.50;;;21.60;99.90;;;;;;4973054;28;20191;-57
2022/07/09 08:50:08;;;;;;;3.95;1.50;;;21.70;99.90;;;;;;4971679;28;20552;-57
2022/07/09 08:52:35;;;;;;;3.03;1.40;;;21.80;99.90;;;;;;4972643;28;20172;-56
2022/07/09 08:55:01;;;;;;;3.50;1.35;;;21.80;99.90;;;;;;4972825;28;20175;-56
2022/07/09 08:57:27;;;;;;;2.80;1.40;;;21.80;99.90;;;;;;4972716;28;20234;-56
2022/07/09 08:59:53;;;;;;;3.67;1.05;;;22.30;99.90;;;;;;4972676;28;20642;-57
2022/07/09 09:02:20;;;;;;;5.72;1.10;;;22.50;99.90;;;;;;4972765;28;20176;-56
2022/07/09 09:04:46;;;;;;;1.67;1.10;;;23.10;99.90;;;;;;4972797;28;20175;-56
2022/07/09 09:07:21;;;;;;;6.65;1.02;;;23.20;99.90;;;;;;4972558;28;20279;-56
2022/07/09 09:09:47;;;;;;;1.88;0.70;;;24.20;99.90;;;;;;4972813;28;20171;-56
2022/07/09 09:12:13;;;;;;;3.13;0.90;;;24.70;99.90;;;;;;4972872;28;20255;-57
2022/07/09 09:14:47;;;;;;;1.58;1.00;;;24.60;99.90;;;;;;4972551;28;20234;-57
2022/07/09 09:17:13;;;;;;;1.30;0.98;;;24.50;99.90;;;;;;4972456;28;20207;-57
2022/07/09 09:19:39;;;;;;;1.05;0.93;;;24.60;99.90;;;;;;4955205;28;20552;-57
2022/07/09 09:22:06;;;;;;;1.90;1.10;;;24.00;99.90;;;;;;4972481;28;20249;-57
2022/07/09 09:24:32;;;;;;;3.42;1.10;;;23.90;99.90;;;;;;4972376;28;20172;-57
2022/07/09 09:26:59;;;;;;;2.72;0.90;;;23.30;99.90;;;;;;4972555;28;20182;-57
2022/07/09 09:29:26;;;;;;;4.07;1.05;;;23.30;99.90;;;;;;4972240;28;20171;-57
2022/07/09 09:31:52;;;;;;;2.30;1.00;;;23.00;99.90;;;;;;4972133;28;20590;-57
2022/07/09 09:34:19;;;;;;;3.35;1.08;;;22.90;99.90;;;;;;4972317;28;20176;-57
2022/07/09 09:36:52;;;;;;;2.75;0.80;;;22.70;99.90;;;;;;4972383;28;20207;-57
2022/07/09 09:39:25;;;;;;;1.33;0.90;;;22.70;99.90;;;;;;4972367;28;20579;-57
2022/07/09 09:41:55;;;;;;;2.28;0.80;;;22.70;99.90;;;;;;4972124;28;20237;-57
2022/07/09 09:44:25;;;;;;;1.13;0.80;;;22.80;99.90;;;;;;4972198;28;20646;-57
2022/07/09 09:46:52;;;;;;;1.42;0.80;;;22.60;99.90;;;;;;4972222;28;20175;-57
2022/07/09 09:49:18;;;;;;;1.13;0.75;;;22.40;99.90;;;;;;4972403;28;20226;-57
2022/07/09 09:51:56;;;;;;;2.15;0.95;;;22.60;99.90;;;;;;4972087;28;20639;-57
2022/07/09 09:54:22;;;;;;;2.20;0.85;;;22.70;99.90;;;;;;4972039;28;20650;-57
2022/07/09 09:56:49;;;;;;;1.35;0.80;;;23.00;99.90;;;;;;4975328;28;20180;-57
2022/07/09 09:59:16;;;;;;;0.98;0.63;;;23.80;99.90;;;;;;4976096;28;20658;-57
2022/07/09 10:01:43;;;;;;;1.65;0.80;;;24.30;99.90;;;;;;4975997;28;20183;-57
2022/07/09 10:04:11;;;;;;;3.50;0.93;;;24.90;99.90;;;;;;4975966;28;20222;-57
2022/07/09 10:06:37;;;;;;;2.53;0.90;;;24.70;99.90;;;;;;4976111;28;20211;-57
2022/07/09 10:09:05;;;;;;;2.00;0.77;;;25.30;99.90;;;;;;4975944;28;20175;-57
2022/07/09 10:11:48;;;;;;;2.55;0.60;;;24.50;99.90;;;;;;4976179;28;20172;-57
2022/07/09 10:14:34;;;;;;;1.95;0.70;;;24.30;99.90;;;;;;4975755;28;20180;-57
2022/07/09 10:17:38;;;;;;;4.03;0.98;;;24.10;99.90;;;;;;4975670;28;20222;-57
2022/07/09 10:20:06;;;;;;;3.17;0.90;;;24.40;99.90;;;;;;4963924;28;20187;-56
2022/07/09 10:22:40;;;;;;;3.85;0.90;;;25.50;99.90;;;;;;4975593;28;20654;-57
2022/07/09 10:25:07;;;;;;;0.98;0.80;;;25.90;99.90;;;;;;4975584;28;20582;-57
2022/07/09 10:28:33;;;;;;;2.55;1.00;;;26.30;99.90;;;;;;4975449;28;20239;-57
2022/07/09 10:31:07;;;;;;;5.30;0.88;;;25.20;99.90;;;;;;4975475;28;20228;-58
2022/07/09 10:33:35;;;;;;;1.38;0.80;;;25.10;99.90;;;;;;4975379;28;20263;-57
2022/07/09 10:36:11;;;;;;;1.75;0.90;;;25.60;99.90;;;;;;4975477;28;20191;-56
2022/07/09 10:38:38;;;;;;;0.70;0.70;;;25.60;99.90;;;;;;4957496;28;20222;-56
2022/07/09 10:41:05;;;;;;;1.05;0.70;;;25.40;99.90;;;;;;4974892;28;20254;-57
2022/07/09 10:43:50;;;;;;;0.90;0.80;;;25.60;99.90;;;;;;4975174;28;20180;-57
2022/07/09 10:49:38;;;;;;;1.85;1.00;;;26.70;99.90;;;;;;4975340;28;20179;-57
2022/07/09 10:52:08;;;;;;;1.33;0.73;;;26.70;99.90;;;;;;4974739;28;20229;-57
2022/07/09 10:58:17;;;;;;;2.53;1.05;;;25.70;99.90;;;;;;4975013;28;20222;-58
2022/07/09 11:00:43;;;;;;;1.15;0.70;;;26.50;99.90;;;;;;4975082;28;20183;-58
2022/07/09 11:03:09;;;;;;;1.55;0.70;;;26.40;99.90;;;;;;4974924;28;20255;-58
2022/07/09 11:05:44;;;;;;;1.75;0.80;;;26.70;99.90;;;;;;4975020;28;20540;-57
2022/07/09 11:08:10;;;;;;;1.20;0.80;;;26.10;99.90;;;;;;4973879;28;20183;-57
2022/07/09 11:11:14;;;;;;;0.60;0.60;;;26.10;99.90;;;;;;4974618;28;20523;-58
2022/07/09 11:13:40;;;;;;;1.92;0.98;;;26.40;99.90;;;;;;4974564;28;20538;-57
2022/07/09 11:16:06;;;;;;;1.90;0.70;;;26.70;99.90;;;;;;4975084;28;20559;-58
2022/07/09 11:18:32;;;;;;;3.72;0.90;;;27.10;99.90;;;;;;4974510;28;20243;-57
2022/07/09 11:20:58;;;;;;;2.55;0.90;;;27.60;99.90;;;;;;4975039;28;20196;-58
2022/07/09 11:23:24;;;;;;;1.42;1.02;;;28.20;99.90;;;;;;4974445;28;20638;-58
2022/07/09 11:25:50;;;;;;;1.02;0.80;;;28.30;99.90;;;;;;4974567;28;20171;-57
2022/07/09 11:28:25;;;;;;;2.15;0.75;;;28.40;99.90;;;;;;4974208;28;20206;-58
2022/07/09 11:31:01;;;;;;;1.00;0.70;;;28.40;99.90;;;;;;4974512;28;20298;-58
2022/07/09 11:33:28;;;;;;;2.95;1.00;;;28.40;99.90;;;;;;4974270;28;20211;-57
2022/07/09 11:35:54;;;;;;;1.80;0.70;;;28.30;99.90;;;;;;4974490;28;20194;-58
2022/07/09 11:38:20;;;;;;;0.90;0.68;;;28.30;99.90;;;;;;4974430;28;20672;-58
2022/07/09 11:40:46;;;;;;;0.98;0.88;;;28.60;99.90;;;;;;4974371;28;20168;-57
2022/07/09 11:43:16;;;;;;;1.48;0.80;;;28.60;99.90;;;;;;4974331;28;20184;-58
2022/07/09 11:45:52;;;;;;;1.63;0.70;;;28.60;99.90;;;;;;4973926;28;20180;-57
2022/07/09 11:48:18;;;;;;;1.65;0.70;;;29.00;99.90;;;;;;4974259;28;20198;-57
2022/07/09 11:50:45;;;;;;;1.83;1.30;;;28.90;99.90;;;;;;4974134;28;20200;-58
2022/07/09 11:53:22;;;;;;;1.15;0.65;;;28.60;99.90;;;;;;4974095;28;20167;-58
2022/07/09 11:56:08;;;;;;;3.03;0.88;;;28.60;99.90;;;;;;4974103;28;20202;-58
2022/07/09 11:58:34;;;;;;;1.20;0.70;;;29.30;99.90;;;;;;4973804;28;20211;-58
2022/07/09 12:01:00;;;;;;;0.73;0.73;;;29.70;99.90;;;;;;4973996;28;20219;-58
2022/07/09 12:03:28;;;;;;;1.83;0.90;;;29.90;99.90;;;;;;4973822;28;20184;-57
2022/07/09 12:05:54;;;;;;;3.83;1.00;;;30.20;99.90;;;;;;4973808;28;20664;-57
2022/07/09 12:08:30;;;;;;;1.90;0.82;;;30.30;99.90;;;;;;4973623;28;20546;-58
2022/07/09 12:10:57;;;;;;;2.78;0.60;;;30.60;99.90;;;;;;4973755;28;20581;-58
2022/07/09 12:13:23;;;;;;;2.92;0.80;;;30.00;99.90;;;;;;4973614;28;20260;-58
2022/07/09 12:15:49;;;;;;;1.08;0.70;;;30.90;99.90;;;;;;4973751;28;20254;-58
2022/07/09 12:18:15;;;;;;;2.35;0.70;;;30.50;99.90;;;;;;4973332;28;20254;-57
2022/07/09 12:20:41;;;;;;;3.40;0.80;;;30.30;99.90;;;;;;4973484;28;20172;-58
2022/07/09 12:23:08;;;;;;;0.88;0.60;;;30.10;99.90;;;;;;4973447;28;20226;-57
2022/07/09 12:25:33;;;;;;;0.70;0.70;;;30.20;99.90;;;;;;4973410;28;20206;-58
2022/07/09 12:27:59;;;;;;;1.08;0.70;;;30.40;99.90;;;;;;4973322;28;20203;-58
2022/07/09 12:30:25;;;;;;;4.68;1.05;;;31.20;99.90;;;;;;4973244;28;20259;-58
2022/07/09 12:32:51;;;;;;;4.10;0.88;;;31.30;99.90;;;;;;4973300;28;20224;-58
2022/07/09 12:35:18;;;;;;;1.38;0.90;;;31.80;99.90;;;;;;4973343;28;20176;-58
2022/07/09 12:37:44;;;;;;;1.15;0.80;;;32.20;99.90;;;;;;4973063;28;20200;-57
2022/07/09 12:40:11;;;;;;;0.60;0.60;;;31.80;99.90;;;;;;4973154;28;20528;-57
2022/07/09 12:42:38;;;;;;;1.67;0.80;;;32.20;99.90;;;;;;4973082;28;20168;-57
2022/07/09 12:45:04;;;;;;;0.80;0.60;;;32.10;99.90;;;;;;4973037;28;20712;-57
2022/07/09 12:47:30;;;;;;;0.63;0.60;;;32.30;99.90;;;;;;4973119;28;20168;-57
2022/07/09 12:49:56;;;;;;;1.73;0.77;;;32.20;99.90;;;;;;4972906;28;20168;-57
2022/07/09 12:52:22;;;;;;;1.40;0.80;;;32.00;99.90;;;;;;4972901;28;20187;-57
2022/07/09 12:54:49;;;;;;;1.67;0.85;;;32.00;99.90;;;;;;4972936;28;20581;-56
2022/07/09 12:57:15;;;;;;;1.20;0.80;;;31.90;99.90;;;;;;4972816;28;20211;-57
2022/07/09 12:59:41;;;;;;;2.25;0.73;;;31.40;99.90;;;;;;4972821;28;20670;-56
2022/07/09 13:02:07;;;;;;;1.45;0.70;;;31.90;99.90;;;;;;4972838;28;20584;-57
2022/07/09 13:04:34;;;;;;;2.05;0.82;;;31.70;99.90;;;;;;4972719;28;20179;-57
2022/07/09 13:07:00;;;;;;;3.53;0.95;;;32.00;99.90;;;;;;4972708;28;20270;-57